Startpagina
METAR-TAF:

METAR-TAF

Vliegvelden :

Natal, Rio Grande do Norte, Brazilië

breedte: 05-55S, lengte: 035-15W, hoogte: 52 m

Actueel weer

Dit bericht is 23 minuten geleden gemaakt, om 20:00 UTC
Wind 10 kt uit het oosten
Temperatuur 29°C
Vochtigheid 74%
Druk 1011 hPa
Zicht 10 km of meer
Verspreide wolken op 1900 ft

METAR: SBNT 282000Z 08010KT 9999 SCT019 29/24 Q1011

Tijdstip: 17:23 (20:23 UTC)

Verwachting

Dit bericht is 4 uur en het 23 minuten geleden gemaakt, om 16:00 UTC
Verwachting geldig van 28 om 18 UTC tot 29 om 06 UTC
Wind 10 kt uit het oostzuidoosten
Zicht 10 km of meer
Verspreide wolken op 2500 ft
Wijzigt naar
van 29 om 03 UTC tot 29 om 05 UTC
Wind 5 kt uit het zuidzuidoosten

TAF: SBNT 281600Z 2818/2906 11010KT 9999 SCT025 TX31/2818Z TN26/2906Z BECMG 2903/2905 16005KT RMK PFM

Waarnemingen en weersverwachtingen van meer dan 4000 vliegvelden (METAR en TAF).

De beschikbare stations zijn de gele en rode punten op de kaart.

Ga met uw muis naar het station om de naam te zien.

Klik dan om waarnemingen en weersverwachtingen te zien.

kaart wijzigen: klik op de groene knoppen met een zwart kruis om in te zoomen, op de groene knop met een streepje om uit te zoomen of op de groene pijlen voor aangrenzende kaarten.


METAR-TAF: